Time;durP1;ratioP1;P1;durP2;ratioP2;P2;SDS_P1;SDS_P2;PMS_P1;PMS_P2;Temp;Humidity;BMP_temperature;BMP_pressure;BME280_temperature;BME280_humidity;BME280_pressure;Samples;Min_cycle;Max_cycle;Signal;HPM_P1;HPM_P2
2023/12/22 00:01:00;;;;;;;17.02;4.85;;;;;;;4.83;86.20;98580.78;7390905;19;20356;-62
2023/12/22 00:03:27;;;;;;;18.30;4.97;;;;;;;4.86;86.02;98591.69;7391987;19;20390;-63
2023/12/22 00:05:54;;;;;;;16.95;4.60;;;;;;;4.85;86.52;98563.00;7391082;19;20352;-63
2023/12/22 00:08:20;;;;;;;19.75;4.72;;;;;;;4.88;86.26;98552.91;7394192;19;20421;-62
2023/12/22 00:10:47;;;;;;;17.48;5.10;;;;;;;4.91;86.23;98572.75;7394049;19;20368;-63
2023/12/22 00:13:14;;;;;;;17.60;4.43;;;;;;;4.93;85.65;98611.97;7391452;19;20381;-64
2023/12/22 00:15:42;;;;;;;18.85;4.68;;;;;;;4.93;85.21;98564.66;7393511;19;20872;-62
2023/12/22 00:18:09;;;;;;;19.30;4.70;;;;;;;4.97;85.45;98552.78;7393307;19;20369;-63
2023/12/22 00:20:35;;;;;;;21.15;5.45;;;;;;;4.97;85.07;98586.94;7394293;19;20753;-62
2023/12/22 00:23:02;;;;;;;20.65;5.50;;;;;;;4.98;84.82;98557.84;7392638;19;20381;-62
2023/12/22 00:25:28;;;;;;;18.70;4.65;;;;;;;4.95;84.44;98581.06;7393366;19;20378;-61
2023/12/22 00:27:55;;;;;;;16.48;4.43;;;;;;;5.00;83.94;98576.84;7392709;19;20349;-63
2023/12/22 00:30:24;;;;;;;19.17;5.40;;;;;;;5.02;83.28;98555.66;7394354;19;20343;-63
2023/12/22 00:32:50;;;;;;;17.05;4.53;;;;;;;5.05;82.80;98610.44;7391491;19;20405;-63
2023/12/22 00:35:17;;;;;;;14.48;4.22;;;;;;;5.07;82.46;98587.41;7393825;19;20375;-62
2023/12/22 00:37:44;;;;;;;18.42;4.82;;;;;;;5.11;82.04;98557.94;7393844;19;20364;-63
2023/12/22 00:40:11;;;;;;;20.17;4.70;;;;;;;5.16;81.79;98601.22;7392839;19;20368;-62
2023/12/22 00:42:38;;;;;;;19.02;5.03;;;;;;;5.19;81.63;98596.41;7393440;19;20468;-63
2023/12/22 00:45:05;;;;;;;20.77;5.22;;;;;;;5.23;82.16;98573.19;7393966;19;20927;-62
2023/12/22 00:47:34;;;;;;;17.40;4.50;;;;;;;5.19;83.20;98572.75;7393839;19;20356;-62
2023/12/22 00:50:02;;;;;;;16.27;3.80;;;;;;;5.11;83.92;98572.88;7390985;19;20348;-63
2023/12/22 00:52:29;;;;;;;15.75;4.05;;;;;;;5.01;83.48;98588.19;7391680;19;20372;-61
2023/12/22 00:54:56;;;;;;;15.32;3.92;;;;;;;4.96;83.89;98586.13;7393794;19;20352;-63
2023/12/22 00:57:23;;;;;;;20.10;4.70;;;;;;;4.98;84.33;98588.56;7392982;19;20360;-62
2023/12/22 00:59:49;;;;;;;20.67;5.05;;;;;;;4.98;84.12;98588.56;7393396;19;20348;-63
2023/12/22 01:02:17;;;;;;;15.90;4.53;;;;;;;5.00;84.17;98592.63;7389998;19;20728;-62
2023/12/22 01:04:44;;;;;;;18.77;4.53;;;;;;;5.04;84.32;98609.63;7392846;19;20388;-62
2023/12/22 01:07:11;;;;;;;18.42;5.35;;;;;;;5.11;84.24;98618.38;7392493;19;20844;-62
2023/12/22 01:09:38;;;;;;;16.75;4.60;;;;;;;5.13;84.64;98618.19;7393875;19;20345;-62
2023/12/22 01:12:06;;;;;;;18.10;4.80;;;;;;;5.09;84.38;98603.81;7390344;19;20364;-62
2023/12/22 01:14:33;;;;;;;16.27;5.15;;;;;;;5.06;85.00;98636.53;7392923;19;20365;-59
2023/12/22 01:17:00;;;;;;;18.73;4.63;;;;;;;5.03;85.29;98594.84;7391588;19;20352;-62
2023/12/22 01:19:27;;;;;;;17.20;4.60;;;;;;;5.01;84.85;98640.72;7390321;19;20921;-62
2023/12/22 01:21:54;;;;;;;17.03;4.23;;;;;;;5.01;85.91;98627.59;7389837;19;20751;-62
2023/12/22 01:24:20;;;;;;;17.42;4.15;;;;;;;4.90;85.67;98624.47;7391816;19;20800;-62
2023/12/22 01:26:50;;;;;;;14.48;4.13;;;;;;;4.88;86.61;98676.38;7388556;19;21291;-62
2023/12/22 01:29:17;;;;;;;18.83;4.72;;;;;;;4.83;87.62;98644.63;7391955;19;20403;-62
2023/12/22 01:31:44;;;;;;;20.02;4.70;;;;;;;4.82;88.18;98637.72;7391522;19;20381;-63
2023/12/22 01:34:11;;;;;;;18.75;4.40;;;;;;;4.76;87.93;98645.56;7389682;19;20375;-62
2023/12/22 01:36:37;;;;;;;16.20;4.55;;;;;;;4.76;88.92;98638.50;7392265;19;20373;-62
2023/12/22 01:39:04;;;;;;;12.73;3.45;;;;;;;4.69;89.63;98620.03;7391288;19;20333;-65
2023/12/22 01:41:34;;;;;;;11.68;3.33;;;;;;;4.62;90.98;98634.94;7391190;19;20349;-66
2023/12/22 01:44:01;;;;;;;13.23;3.75;;;;;;;4.44;91.79;98643.25;7390142;19;20344;-66
2023/12/22 01:46:27;;;;;;;18.17;4.15;;;;;;;4.38;93.30;98619.53;7391393;19;20371;-67
2023/12/22 01:48:54;;;;;;;17.77;4.43;;;;;;;4.29;93.68;98616.19;7391104;19;20392;-66
2023/12/22 01:51:21;;;;;;;17.00;4.10;;;;;;;4.19;94.66;98631.47;7391673;19;20428;-67
2023/12/22 01:53:48;;;;;;;18.40;4.35;;;;;;;4.13;94.69;98655.81;7389582;19;20376;-67
2023/12/22 01:56:15;;;;;;;20.23;4.35;;;;;;;4.12;94.99;98649.72;7387392;19;20360;-68
2023/12/22 01:58:41;;;;;;;16.73;4.47;;;;;;;4.13;95.73;98653.19;7388727;19;20340;-68
2023/12/22 02:01:17;;;;;;;18.90;4.63;;;;;;;4.06;95.86;98679.34;7392142;19;20357;-69
2023/12/22 02:03:44;;;;;;;13.82;3.50;;;;;;;3.94;96.16;98641.44;7397877;19;20336;-68
2023/12/22 02:06:11;;;;;;;16.45;4.32;;;;;;;3.92;96.64;98646.88;7397004;19;20908;-69
2023/12/22 02:08:38;;;;;;;19.65;4.43;;;;;;;3.85;97.07;98666.97;7398525;19;20377;-69
2023/12/22 02:11:05;;;;;;;17.40;4.80;;;;;;;3.83;97.81;98648.78;7396403;19;20372;-68
2023/12/22 02:13:31;;;;;;;14.15;4.00;;;;;;;3.79;97.45;98641.44;7396429;19;20356;-69
2023/12/22 02:16:06;;;;;;;15.38;4.20;;;;;;;3.85;97.33;98636.28;7395584;19;20697;-68
2023/12/22 02:18:35;;;;;;;18.98;4.20;;;;;;;3.88;97.26;98648.22;7395914;19;20384;-68
2023/12/22 02:21:03;;;;;;;15.77;4.20;;;;;;;3.90;96.80;98627.88;7397193;19;20343;-68
2023/12/22 02:23:30;;;;;;;12.38;3.83;;;;;;;3.96;96.65;98642.88;7397601;19;20340;-68
2023/12/22 02:26:07;;;;;;;18.63;4.15;;;;;;;4.01;95.71;98640.50;7394887;19;20349;-68
2023/12/22 02:28:35;;;;;;;15.52;4.25;;;;;;;4.09;95.36;98636.97;7396489;19;20355;-67
2023/12/22 02:31:06;;;;;;;16.90;3.80;;;;;;;4.12;94.69;98641.03;7397028;19;20812;-68
2023/12/22 02:33:36;;;;;;;19.08;4.30;;;;;;;4.20;94.58;98643.56;7392895;19;20707;-68
2023/12/22 02:36:06;;;;;;;14.50;3.40;;;;;;;4.19;93.83;98660.31;7395940;19;20356;-67
2023/12/22 02:38:34;;;;;;;14.15;3.33;;;;;;;4.22;92.22;98642.38;7397554;19;20341;-68
2023/12/22 02:41:02;;;;;;;14.93;3.85;;;;;;;4.20;92.12;98691.59;7396743;19;20388;-68
2023/12/22 02:43:28;;;;;;;10.43;2.97;;;;;;;4.18;92.60;98661.31;7396229;19;20343;-69
2023/12/22 02:45:55;;;;;;;9.10;2.40;;;;;;;4.13;92.97;98669.72;7393889;19;20881;-69
2023/12/22 02:48:22;;;;;;;7.80;2.22;;;;;;;4.05;94.04;98661.97;7395076;19;20369;-69
2023/12/22 02:50:49;;;;;;;8.53;2.30;;;;;;;3.88;95.20;98664.75;7396424;19;20347;-69
2023/12/22 02:53:15;;;;;;;7.82;2.53;;;;;;;3.75;96.08;98676.91;7393142;19;20364;-69
2023/12/22 02:55:42;;;;;;;9.05;2.40;;;;;;;3.56;97.02;98710.50;7391547;19;20340;-69
2023/12/22 02:58:09;;;;;;;10.23;2.83;;;;;;;3.49;98.47;98703.56;7391822;19;20834;-70
2023/12/22 03:00:35;;;;;;;9.77;2.28;;;;;;;3.37;97.93;98679.56;7390604;19;20697;-68
2023/12/22 03:03:02;;;;;;;11.13;2.42;;;;;;;3.40;98.41;98664.31;7390143;19;20361;-68
2023/12/22 03:05:29;;;;;;;9.80;2.60;;;;;;;3.41;98.63;98672.97;7393272;19;20336;-68
2023/12/22 03:07:55;;;;;;;9.38;2.42;;;;;;;3.43;98.38;98640.34;7394409;19;20337;-68
2023/12/22 03:10:22;;;;;;;9.55;2.60;;;;;;;3.44;98.29;98685.72;7393733;19;20344;-68
2023/12/22 03:12:49;;;;;;;9.48;2.40;;;;;;;3.44;98.05;98656.88;7392973;19;20356;-68
2023/12/22 03:15:15;;;;;;;10.95;2.65;;;;;;;3.47;98.90;98638.19;7395199;19;20752;-68
2023/12/22 03:17:44;;;;;;;10.75;2.67;;;;;;;3.50;99.15;98664.03;7393177;19;20336;-68
2023/12/22 03:20:11;;;;;;;9.35;2.50;;;;;;;3.50;98.84;98666.66;7395583;19;20336;-67
2023/12/22 03:22:37;;;;;;;11.18;2.70;;;;;;;3.54;98.74;98641.72;7395632;19;20475;-67
2023/12/22 03:25:04;;;;;;;12.43;3.20;;;;;;;3.59;98.52;98657.72;7394136;19;20352;-68
2023/12/22 03:27:31;;;;;;;10.13;2.65;;;;;;;3.61;98.78;98692.44;7394619;19;20694;-69
2023/12/22 03:29:58;;;;;;;14.20;2.83;;;;;;;3.52;98.74;98672.53;7393791;19;20370;-69
2023/12/22 03:32:24;;;;;;;11.47;3.00;;;;;;;3.43;99.87;98676.22;7393778;19;21176;-70
2023/12/22 03:34:51;;;;;;;14.05;2.97;;;;;;;3.34;100.00;98683.38;7392629;19;20352;-68
2023/12/22 03:37:18;;;;;;;11.65;3.53;;;;;;;3.33;100.00;98649.47;7394103;19;20421;-69
2023/12/22 03:39:45;;;;;;;13.45;3.28;;;;;;;3.32;100.00;98645.22;7394204;19;20352;-68
2023/12/22 03:42:11;;;;;;;12.82;3.15;;;;;;;3.35;100.00;98644.88;7394179;19;20896;-69
2023/12/22 03:44:39;;;;;;;14.95;3.65;;;;;;;3.41;100.00;98667.75;7394077;19;20369;-68
2023/12/22 03:47:05;;;;;;;17.35;3.97;;;;;;;3.45;100.00;98640.19;7391769;19;20381;-68
2023/12/22 03:49:32;;;;;;;17.38;4.40;;;;;;;3.50;99.96;98622.09;7394843;19;20368;-68
2023/12/22 03:51:59;;;;;;;17.58;3.88;;;;;;;3.52;99.55;98651.56;7393385;19;20332;-68
2023/12/22 03:54:26;;;;;;;15.68;4.32;;;;;;;3.60;99.35;98643.63;7393160;19;20400;-68
2023/12/22 03:56:52;;;;;;;19.83;3.93;;;;;;;3.58;98.29;98665.78;7392425;19;20391;-68
2023/12/22 03:59:19;;;;;;;18.45;4.32;;;;;;;3.67;98.81;98638.47;7393870;19;20384;-68
2023/12/22 04:01:53;;;;;;;19.05;4.30;;;;;;;3.70;98.93;98642.53;7392076;19;20374;-67
2023/12/22 04:04:22;;;;;;;18.98;4.15;;;;;;;3.67;98.36;98633.22;7391142;19;20496;-67
2023/12/22 04:06:49;;;;;;;17.88;4.03;;;;;;;3.66;97.76;98611.44;7394449;19;20353;-67
2023/12/22 04:09:16;;;;;;;16.45;4.35;;;;;;;3.68;97.75;98625.19;7393509;19;20337;-67
2023/12/22 04:11:43;;;;;;;13.60;3.97;;;;;;;3.66;96.65;98627.16;7391866;19;20328;-67
2023/12/22 04:14:09;;;;;;;14.07;3.45;;;;;;;3.70;96.66;98648.59;7389766;19;20393;-66
2023/12/22 04:16:38;;;;;;;16.55;3.47;;;;;;;3.74;96.91;98636.75;7391675;19;20733;-66
2023/12/22 04:19:05;;;;;;;14.30;3.38;;;;;;;3.69;96.39;98615.50;7391794;19;20373;-67
2023/12/22 04:21:37;;;;;;;9.32;2.10;;;;;;;3.59;96.23;98615.78;7390757;19;20434;-66
2023/12/22 04:24:04;;;;;;;10.93;2.20;;;;;;;3.50;96.68;98637.00;7390345;19;20340;-67
2023/12/22 04:26:31;;;;;;;10.63;3.13;;;;;;;3.50;97.36;98632.56;7393611;19;20353;-66
2023/12/22 04:28:57;;;;;;;11.10;2.85;;;;;;;3.48;97.71;98624.06;7391573;19;20851;-66
2023/12/22 04:31:25;;;;;;;14.90;3.50;;;;;;;3.51;98.35;98655.19;7392563;19;20704;-66
2023/12/22 04:33:51;;;;;;;15.95;4.13;;;;;;;3.53;98.41;98647.13;7390615;19;20444;-68
2023/12/22 04:36:18;;;;;;;19.63;4.63;;;;;;;3.52;98.30;98664.66;7393268;19;20423;-69
2023/12/22 04:38:45;;;;;;;17.20;4.75;;;;;;;3.56;99.19;98660.69;7392321;19;20795;-70
2023/12/22 04:41:12;;;;;;;17.95;4.10;;;;;;;3.49;99.58;98709.59;7392250;19;20364;-71
2023/12/22 04:43:38;;;;;;;19.38;4.57;;;;;;;3.43;100.00;98686.72;7392207;19;20871;-71
2023/12/22 04:46:05;;;;;;;19.73;4.77;;;;;;;3.38;100.00;98660.22;7391175;19;20360;-70
2023/12/22 04:48:33;;;;;;;18.83;4.25;;;;;;;3.30;100.00;98679.47;7392434;19;21098;-71
2023/12/22 04:50:59;;;;;;;16.92;4.40;;;;;;;3.26;100.00;98663.28;7392464;19;20333;-71
2023/12/22 04:53:26;;;;;;;18.33;4.47;;;;;;;3.28;100.00;98676.22;7392288;19;20348;-71
2023/12/22 04:55:53;;;;;;;18.70;3.83;;;;;;;3.23;100.00;98671.50;7391155;19;20360;-71
2023/12/22 04:58:20;;;;;;;17.45;4.05;;;;;;;3.19;100.00;98661.56;7390482;19;20372;-71
2023/12/22 05:00:46;;;;;;;18.27;3.93;;;;;;;3.14;100.00;98690.88;7392166;19;20353;-70
2023/12/22 05:03:13;;;;;;;15.40;3.20;;;;;;;3.02;100.00;98713.28;7391786;19;20376;-70
2023/12/22 05:05:40;;;;;;;12.45;2.85;;;;;;;3.02;100.00;98676.59;7393334;19;20333;-70
2023/12/22 05:08:07;;;;;;;15.88;3.95;;;;;;;2.99;100.00;98650.75;7391549;19;20355;-69
2023/12/22 05:10:34;;;;;;;17.60;3.80;;;;;;;3.06;100.00;98646.44;7392672;19;20372;-68
2023/12/22 05:13:00;;;;;;;12.65;3.17;;;;;;;3.05;100.00;98656.09;7391557;19;20365;-68
2023/12/22 05:15:27;;;;;;;15.50;4.10;;;;;;;3.04;100.00;98630.09;7390261;19;20357;-68
2023/12/22 05:17:54;;;;;;;16.58;4.00;;;;;;;3.05;100.00;98636.94;7391219;19;20361;-68
2023/12/22 05:20:20;;;;;;;20.02;4.82;;;;;;;3.12;100.00;98639.66;7392073;19;20431;-67
2023/12/22 05:22:47;;;;;;;23.90;4.47;;;;;;;3.14;100.00;98648.16;7392179;19;20336;-67
2023/12/22 05:25:14;;;;;;;20.77;4.32;;;;;;;3.18;100.00;98647.63;7391551;19;20764;-68
2023/12/22 05:27:42;;;;;;;17.65;3.88;;;;;;;3.17;100.00;98630.28;7392440;19;20369;-68
2023/12/22 05:30:10;;;;;;;15.13;3.47;;;;;;;3.19;100.00;98640.59;7388439;19;20903;-68
2023/12/22 05:32:37;;;;;;;18.88;4.47;;;;;;;3.26;100.00;98642.31;7391112;19;20356;-68
2023/12/22 05:35:04;;;;;;;19.70;4.45;;;;;;;3.29;100.00;98675.19;7390749;19;20386;-68
2023/12/22 05:37:31;;;;;;;19.13;4.78;;;;;;;3.42;100.00;98661.50;7396601;19;20366;-68
2023/12/22 05:39:58;;;;;;;14.07;3.78;;;;;;;3.51;100.00;98676.16;7397829;19;20604;-70
2023/12/22 05:42:24;;;;;;;20.80;4.53;;;;;;;3.52;100.00;98693.50;7392346;19;20369;-70
2023/12/22 05:44:51;;;;;;;15.30;3.70;;;;;;;3.53;100.00;98674.19;7399217;19;20344;-70
2023/12/22 05:47:18;;;;;;;17.45;4.22;;;;;;;3.57;100.00;98672.00;7398011;19;20356;-71
2023/12/22 05:49:45;;;;;;;14.80;3.58;;;;;;;3.60;100.00;98651.47;7399019;19;20415;-71
2023/12/22 05:52:12;;;;;;;20.87;4.47;;;;;;;3.59;100.00;98688.34;7397829;19;20815;-71
2023/12/22 05:54:39;;;;;;;23.67;4.18;;;;;;;3.61;100.00;98695.06;7396462;19;20368;-71
2023/12/22 05:57:07;;;;;;;17.87;3.90;;;;;;;3.64;99.28;98710.44;7399139;19;20345;-71
2023/12/22 05:59:34;;;;;;;15.17;3.83;;;;;;;3.70;98.66;98685.31;7398632;19;20382;-70
2023/12/22 06:02:02;;;;;;;17.98;4.13;;;;;;;3.73;98.09;98689.38;7396737;19;20431;-70
2023/12/22 06:04:29;;;;;;;18.67;4.03;;;;;;;3.80;98.21;98700.75;7397393;19;20348;-70
2023/12/22 06:06:56;;;;;;;16.92;4.28;;;;;;;3.82;98.10;98691.72;7395803;19;20432;-71
2023/12/22 06:09:23;;;;;;;13.27;3.10;;;;;;;3.85;96.78;98698.44;7397410;19;20344;-71
2023/12/22 06:11:49;;;;;;;13.63;3.20;;;;;;;3.88;96.28;98703.31;7395922;19;20373;-71
2023/12/22 06:14:16;;;;;;;15.57;3.88;;;;;;;3.92;97.43;98678.34;7395238;19;20687;-71
2023/12/22 06:16:43;;;;;;;19.75;3.85;;;;;;;3.91;97.09;98702.13;7397072;19;20702;-70
2023/12/22 06:19:13;;;;;;;12.13;3.30;;;;;;;3.83;97.39;98722.22;7395940;19;20351;-70
2023/12/22 06:21:40;;;;;;;13.18;3.45;;;;;;;3.75;97.90;98732.78;7397172;19;20348;-69
2023/12/22 06:24:07;;;;;;;13.38;3.28;;;;;;;3.70;98.42;98727.28;7396871;19;20939;-70
2023/12/22 06:26:34;;;;;;;12.65;3.25;;;;;;;3.66;99.15;98732.03;7392068;19;20995;-71
2023/12/22 06:29:01;;;;;;;13.70;3.70;;;;;;;3.59;100.00;98820.28;7392551;19;20352;-72
2023/12/22 06:31:28;;;;;;;14.50;3.15;;;;;;;3.23;99.91;98820.88;7395573;19;20352;-71
2023/12/22 06:33:54;;;;;;;7.80;1.95;;;;;;;3.06;99.12;98749.41;7396899;19;20710;-71
2023/12/22 06:36:23;;;;;;;6.55;1.67;;;;;;;2.98;97.94;98744.22;7393585;19;20917;-71
2023/12/22 06:38:54;;;;;;;7.80;1.88;;;;;;;3.03;98.02;98726.16;7395026;19;20729;-71
2023/12/22 06:41:25;;;;;;;7.10;1.90;;;;;;;2.99;95.74;98777.28;7397255;19;20352;-71
2023/12/22 06:43:55;;;;;;;5.15;1.50;;;;;;;3.01;95.12;98751.72;7397644;19;20340;-71
2023/12/22 06:46:25;;;;;;;5.57;1.48;;;;;;;3.00;96.26;98759.78;7396793;19;20749;-71
2023/12/22 06:48:54;;;;;;;6.95;1.65;;;;;;;3.00;94.66;98788.59;7397163;19;20344;-70
2023/12/22 06:51:34;;;;;;;6.65;1.60;;;;;;;3.00;95.25;98799.88;7396093;19;20875;-70
2023/12/22 06:54:04;;;;;;;6.00;1.43;;;;;;;3.06;95.43;98782.66;7394175;19;20464;-70
2023/12/22 06:56:34;;;;;;;6.90;1.97;;;;;;;3.10;94.97;98810.13;7397858;19;20428;-70
2023/12/22 06:59:02;;;;;;;8.68;1.90;;;;;;;3.18;95.69;98776.00;7395429;19;20324;-70
2023/12/22 07:01:34;;;;;;;5.97;1.75;;;;;;;3.23;95.65;98799.91;7396586;19;20431;-70
2023/12/22 07:04:02;;;;;;;8.70;2.00;;;;;;;3.24;96.37;98775.31;7397352;19;20375;-69
2023/12/22 07:06:30;;;;;;;20.80;4.35;;;;;;;3.30;96.25;98786.09;7397500;19;20368;-69
2023/12/22 07:09:17;;;;;;;19.55;4.68;;;;;;;3.31;96.05;98812.13;7397584;19;20357;-69
2023/12/22 07:11:48;;;;;;;15.20;3.72;;;;;;;3.35;96.79;98796.88;7396011;19;20392;-69
2023/12/22 07:14:18;;;;;;;11.35;3.10;;;;;;;3.38;97.35;98801.75;7394759;19;20353;-70
2023/12/22 07:16:44;;;;;;;13.93;3.25;;;;;;;3.34;97.96;98800.50;7395959;19;20352;-72
2023/12/22 07:19:14;;;;;;;10.20;3.00;;;;;;;3.28;98.95;98816.91;7394306;19;20329;-72
2023/12/22 07:21:41;;;;;;;13.05;2.78;;;;;;;3.25;99.95;98816.25;7396244;19;20332;-72
2023/12/22 07:24:11;;;;;;;8.45;2.03;;;;;;;3.20;100.00;98818.56;7396807;19;20360;-73
2023/12/22 07:26:40;;;;;;;8.25;2.17;;;;;;;3.13;100.00;98806.34;7396826;19;20369;-73
2023/12/22 07:29:06;;;;;;;7.90;1.40;;;;;;;2.94;100.00;98826.75;7395875;19;20907;-72
2023/12/22 07:31:34;;;;;;;6.07;1.48;;;;;;;2.66;100.00;98839.50;7393426;19;20437;-72
2023/12/22 07:34:01;;;;;;;6.47;1.50;;;;;;;2.58;100.00;98827.22;7392011;19;20373;-72
2023/12/22 07:36:28;;;;;;;7.70;1.58;;;;;;;2.53;100.00;98839.19;7395981;19;20683;-71
2023/12/22 07:38:57;;;;;;;5.28;1.50;;;;;;;2.44;100.00;98825.31;7396508;19;20674;-71
2023/12/22 07:41:24;;;;;;;44.47;16.17;;;;;;;2.47;100.00;98830.22;7394688;19;20333;-71
2023/12/22 07:43:50;;;;;;;37.65;11.90;;;;;;;2.56;100.00;98844.09;7395190;19;20348;-71
2023/12/22 07:46:19;;;;;;;11.15;2.50;;;;;;;2.58;100.00;98849.97;7394132;19;20424;-70
2023/12/22 07:48:45;;;;;;;9.25;2.25;;;;;;;2.64;100.00;98851.94;7395525;19;20473;-70
2023/12/22 07:51:13;;;;;;;11.70;2.15;;;;;;;2.72;100.00;98865.00;7394964;19;20658;-70
2023/12/22 07:53:39;;;;;;;8.35;2.00;;;;;;;2.77;100.00;98869.72;7394427;19;20811;-70
2023/12/22 07:56:07;;;;;;;12.02;2.63;;;;;;;2.82;100.00;98870.81;7393032;19;20436;-70
2023/12/22 07:58:34;;;;;;;12.07;2.40;;;;;;;2.85;100.00;98873.13;7395016;19;20423;-70
2023/12/22 08:01:01;;;;;;;7.93;2.00;;;;;;;2.89;100.00;98878.00;7391526;19;20332;-72
2023/12/22 08:03:28;;;;;;;6.70;1.75;;;;;;;2.87;100.00;98880.81;7387702;19;20357;-72
2023/12/22 08:05:55;;;;;;;9.55;2.55;;;;;;;2.90;100.00;98859.50;7391268;19;20384;-73
2023/12/22 08:08:22;;;;;;;10.70;2.50;;;;;;;2.86;100.00;98900.94;7393155;19;20352;-74
2023/12/22 08:10:49;;;;;;;8.93;2.60;;;;;;;2.74;100.00;98920.63;7389207;19;20351;-74
2023/12/22 08:13:17;;;;;;;16.35;4.35;;;;;;;2.77;100.00;98898.53;7393073;19;20357;-73
2023/12/22 08:15:44;;;;;;;60.03;18.27;;;;;;;2.96;100.00;98861.44;7389306;19;20883;-73
2023/12/22 08:18:11;;;;;;;31.67;8.93;;;;;;;3.15;100.00;98854.16;7392548;19;20695;-72
2023/12/22 08:20:38;;;;;;;21.48;6.60;;;;;;;3.31;100.00;98832.25;7393177;19;20361;-72
2023/12/22 08:23:09;;;;;;;23.05;4.95;;;;;;;3.36;100.00;98841.25;7394160;19;20364;-73
2023/12/22 08:25:41;;;;;;;22.10;5.35;;;;;;;3.46;100.00;98878.53;7382490;19;20793;-73
2023/12/22 08:28:08;;;;;;;23.05;4.90;;;;;;;3.57;100.00;98890.44;7393710;19;20339;-73
2023/12/22 08:30:35;;;;;;;26.85;5.53;;;;;;;3.72;100.00;98887.03;7393117;19;20340;-73
2023/12/22 08:33:02;;;;;;;26.27;5.63;;;;;;;3.88;100.00;98889.53;7391594;19;20386;-74
2023/12/22 08:35:29;;;;;;;24.63;5.90;;;;;;;4.01;100.00;98897.63;7391321;19;20693;-74
2023/12/22 08:37:55;;;;;;;20.52;4.85;;;;;;;4.20;99.61;98896.31;7391213;19;20356;-74
2023/12/22 08:40:25;;;;;;;17.60;4.60;;;;;;;4.38;96.67;98903.88;7391970;19;20380;-74
2023/12/22 08:42:59;;;;;;;23.77;5.82;;;;;;;4.55;97.19;98885.31;7390568;19;20336;-74
2023/12/22 08:45:28;;;;;;;28.58;5.75;;;;;;;4.67;96.45;98912.75;7391795;19;20373;-73
2023/12/22 08:47:55;;;;;;;29.55;5.43;;;;;;;4.77;94.54;98908.06;7391911;19;20360;-73
2023/12/22 08:50:22;;;;;;;22.40;5.20;;;;;;;4.90;94.72;98908.22;7392258;19;20360;-72
2023/12/22 08:52:49;;;;;;;25.75;5.40;;;;;;;4.94;93.44;98913.94;7390672;19;20384;-72
2023/12/22 08:55:16;;;;;;;24.60;5.65;;;;;;;5.06;93.84;98903.78;7389871;19;20855;-72
2023/12/22 08:57:42;;;;;;;22.37;5.80;;;;;;;5.05;92.20;98929.22;7391961;19;20382;-71
2023/12/22 09:00:22;;;;;;;21.35;5.15;;;;;;;5.06;91.90;98943.22;7391630;19;20692;-71
2023/12/22 09:02:48;;;;;;;21.30;5.05;;;;;;;5.10;91.51;98918.19;7392307;19;20363;-71
2023/12/22 09:05:16;;;;;;;15.55;4.13;;;;;;;5.09;91.14;98912.09;7391655;19;20357;-70
2023/12/22 09:07:44;;;;;;;23.13;5.05;;;;;;;5.14;90.97;98972.00;7390655;19;20672;-70
2023/12/22 09:10:12;;;;;;;21.30;5.85;;;;;;;5.16;91.29;98917.44;7391076;19;20365;-70
2023/12/22 09:12:39;;;;;;;19.07;5.57;;;;;;;5.22;91.32;98910.63;7391769;19;20416;-69
2023/12/22 09:15:06;;;;;;;14.52;3.75;;;;;;;5.18;89.29;98915.44;7390298;19;20364;-70
2023/12/22 09:17:32;;;;;;;17.38;4.15;;;;;;;5.32;89.79;98916.44;7390616;19;20816;-69
2023/12/22 09:20:00;;;;;;;18.25;4.72;;;;;;;5.40;90.04;98918.13;7389728;19;20385;-69
2023/12/22 09:22:27;;;;;;;20.92;4.88;;;;;;;5.47;90.11;98924.28;7391352;19;20367;-69
2023/12/22 09:24:54;;;;;;;20.80;4.75;;;;;;;5.49;89.83;98938.06;7387801;19;20356;-68
2023/12/22 09:27:20;;;;;;;20.67;5.43;;;;;;;5.54;89.16;98919.91;7385947;19;20372;-69
2023/12/22 09:29:47;;;;;;;22.63;5.30;;;;;;;5.58;88.47;98904.56;7387552;19;20349;-68
2023/12/22 09:32:14;;;;;;;20.98;4.97;;;;;;;5.64;89.30;98899.38;7388037;19;20730;-67
2023/12/22 09:34:40;;;;;;;20.65;4.35;;;;;;;5.62;86.71;98921.59;7381305;19;21616;-68
2023/12/22 09:37:07;;;;;;;19.57;4.23;;;;;;;5.69;86.95;98898.81;7374632;19;20428;-68
2023/12/22 09:39:34;;;;;;;14.43;4.20;;;;;;;5.69;84.70;98925.09;7378604;19;20807;-68
2023/12/22 09:42:01;;;;;;;16.67;3.97;;;;;;;5.72;84.30;98909.78;7377878;19;20353;-68
2023/12/22 09:44:31;;;;;;;17.48;3.90;;;;;;;5.77;83.72;98897.88;7385323;19;20361;-68
2023/12/22 09:46:59;;;;;;;18.02;4.03;;;;;;;5.79;83.66;98919.56;7389619;19;20851;-67
2023/12/22 09:49:26;;;;;;;16.25;4.22;;;;;;;5.84;84.75;98912.72;7390736;19;20372;-68
2023/12/22 09:51:55;;;;;;;15.75;3.78;;;;;;;5.81;83.54;98905.19;7391075;19;20782;-68
2023/12/22 09:54:21;;;;;;;15.85;3.40;;;;;;;5.84;83.46;98885.59;7389639;19;20410;-67
2023/12/22 09:56:50;;;;;;;10.45;2.60;;;;;;;5.83;81.47;98907.66;7382254;19;20356;-68
2023/12/22 09:59:17;;;;;;;13.77;3.33;;;;;;;5.87;81.30;98906.28;7383178;19;20390;-67
2023/12/22 10:01:47;;;;;;;14.85;3.33;;;;;;;5.91;82.34;98899.63;7374446;19;20348;-67
2023/12/22 10:04:14;;;;;;;14.00;3.33;;;;;;;5.91;81.91;98899.63;7383661;19;20443;-67
2023/12/22 10:06:43;;;;;;;10.68;2.65;;;;;;;5.87;80.48;98916.81;7386824;19;20373;-68
2023/12/22 10:09:11;;;;;;;11.82;2.72;;;;;;;5.92;80.72;98940.72;7377944;19;20851;-67
2023/12/22 10:11:39;;;;;;;12.43;2.75;;;;;;;5.96;81.49;98928.84;7388265;19;20773;-67
2023/12/22 10:14:09;;;;;;;11.10;2.57;;;;;;;5.98;80.97;98923.41;7388742;19;20658;-67
2023/12/22 10:16:36;;;;;;;8.97;2.30;;;;;;;5.93;81.53;98916.06;7387485;19;20442;-68
2023/12/22 10:19:05;;;;;;;8.63;2.83;;;;;;;5.90;81.70;98932.19;7387768;19;20377;-67
2023/12/22 10:21:31;;;;;;;10.50;2.27;;;;;;;5.79;83.09;98937.97;7387582;19;20397;-67
2023/12/22 10:24:01;;;;;;;8.33;2.40;;;;;;;5.84;83.95;98919.78;7392599;19;20413;-67
2023/12/22 10:26:28;;;;;;;11.43;4.20;;;;;;;5.86;84.93;98891.47;7392847;19;20356;-67
2023/12/22 10:28:54;;;;;;;11.05;3.40;;;;;;;5.84;85.87;98909.25;7394527;19;20440;-66
2023/12/22 10:31:22;;;;;;;11.63;3.65;;;;;;;5.83;86.49;98910.28;7393912;19;20353;-66
2023/12/22 10:33:49;;;;;;;11.67;2.57;;;;;;;5.72;86.57;98935.28;7395521;19;20365;-67
2023/12/22 10:36:16;;;;;;;10.57;2.50;;;;;;;5.70;88.47;98905.72;7393056;19;20927;-67
2023/12/22 10:38:44;;;;;;;11.43;2.80;;;;;;;5.60;89.61;98900.75;7392744;19;20388;-68
2023/12/22 10:41:11;;;;;;;13.30;3.07;;;;;;;5.45;91.62;98908.69;7393490;19;20384;-70
2023/12/22 10:43:39;;;;;;;9.65;2.67;;;;;;;5.26;92.12;98917.97;7396052;19;20715;-71
2023/12/22 10:46:08;;;;;;;15.55;3.55;;;;;;;5.14;93.83;98869.50;7392171;19;20446;-71
2023/12/22 10:48:34;;;;;;;15.70;3.58;;;;;;;5.02;94.68;98889.38;7393702;19;20800;-71
2023/12/22 10:51:01;;;;;;;14.68;3.30;;;;;;;4.97;95.75;98891.72;7394584;19;20811;-70
2023/12/22 10:53:28;;;;;;;15.25;3.53;;;;;;;4.80;97.20;98899.81;7393289;19;20381;-70
2023/12/22 10:55:56;;;;;;;13.85;3.58;;;;;;;4.69;98.20;98895.00;7392527;19;20347;-71
2023/12/22 10:58:23;;;;;;;33.65;7.93;;;;;;;4.66;99.20;98900.63;7390590;19;20375;-72
2023/12/22 11:00:51;;;;;;;51.65;10.85;;;;;;;4.58;99.17;98892.84;7389389;19;20360;-71
2023/12/22 11:03:23;;;;;;;31.02;7.38;;;;;;;4.66;100.00;98900.63;7391853;19;20368;-70
2023/12/22 11:05:51;;;;;;;18.20;4.30;;;;;;;4.62;100.00;98891.47;7393573;19;20867;-70
2023/12/22 11:08:19;;;;;;;73.07;14.68;;;;;;;4.55;100.00;98904.53;7392748;19;20489;-71
2023/12/22 11:10:55;;;;;;;47.58;9.85;;;;;;;4.60;100.00;98901.34;7393534;19;20737;-71
2023/12/22 11:13:23;;;;;;;57.75;11.30;;;;;;;4.58;100.00;98898.91;7394033;19;20356;-71
2023/12/22 11:15:52;;;;;;;115.37;22.90;;;;;;;4.60;100.00;98890.84;7390366;19;21093;-71
2023/12/22 11:18:20;;;;;;;68.47;15.18;;;;;;;4.69;100.00;98892.38;7391650;19;20359;-71
2023/12/22 11:20:48;;;;;;;23.80;5.60;;;;;;;4.76;100.00;98885.41;7392643;19;20430;-71
2023/12/22 11:23:17;;;;;;;16.83;4.22;;;;;;;4.80;100.00;98902.44;7391300;19;20375;-70
2023/12/22 11:25:49;;;;;;;16.70;4.03;;;;;;;4.83;100.00;98881.06;7393727;19;20364;-71
2023/12/22 11:28:18;;;;;;;20.42;4.28;;;;;;;4.93;99.76;98865.03;7392981;19;20388;-70
2023/12/22 11:30:45;;;;;;;17.65;3.92;;;;;;;5.05;99.72;98862.72;7392581;19;20390;-70
2023/12/22 11:33:13;;;;;;;21.25;4.65;;;;;;;5.15;100.00;98858.00;7393022;19;20368;-70